Time;durP1;ratioP1;P1;durP2;ratioP2;P2;SDS_P1;SDS_P2;PMS_P1;PMS_P2;Temp;Humidity;BMP_temperature;BMP_pressure;BME280_temperature;BME280_humidity;BME280_pressure;Samples;Min_cycle;Max_cycle;Signal;HPM_P1;HPM_P2
2022/01/27 00:01:26;;;;;;;9.43;8.40;;;17.10;51.40;;;;;;5054727;28;20179;-61
2022/01/27 00:06:55;;;;;;;9.35;7.63;;;17.10;51.40;;;;;;5031765;28;20179;-59
2022/01/27 00:09:41;;;;;;;9.55;8.32;;;17.10;51.40;;;;;;5032798;28;20681;-60
2022/01/27 00:12:07;;;;;;;10.32;8.63;;;17.00;51.40;;;;;;5045226;28;20175;-61
2022/01/27 00:14:32;;;;;;;9.48;8.18;;;17.10;51.50;;;;;;5054224;28;20171;-61
2022/01/27 00:17:02;;;;;;;8.70;7.80;;;17.00;51.40;;;;;;5054761;28;20179;-61
2022/01/27 00:19:28;;;;;;;8.73;7.82;;;17.00;51.40;;;;;;5053646;28;20205;-60
2022/01/27 00:21:53;;;;;;;9.27;8.38;;;17.00;51.50;;;;;;5054689;28;20200;-60
2022/01/27 00:24:19;;;;;;;9.68;8.48;;;17.00;51.40;;;;;;5054416;28;20249;-61
2022/01/27 00:26:45;;;;;;;9.55;8.57;;;17.00;51.30;;;;;;5053484;28;20208;-60
2022/01/27 00:29:10;;;;;;;10.27;9.27;;;17.00;51.30;;;;;;5054195;28;20548;-61
2022/01/27 00:31:36;;;;;;;10.27;8.07;;;17.00;51.20;;;;;;5054150;28;20222;-60
2022/01/27 00:34:04;;;;;;;8.77;7.85;;;17.00;51.20;;;;;;5053645;28;20203;-60
2022/01/27 00:36:31;;;;;;;9.07;8.15;;;16.90;51.30;;;;;;5053723;28;20205;-60
2022/01/27 00:38:56;;;;;;;9.10;8.20;;;16.90;51.30;;;;;;5054112;28;20634;-60
2022/01/27 00:41:23;;;;;;;9.15;8.25;;;16.90;51.20;;;;;;5053183;28;20197;-60
2022/01/27 00:43:49;;;;;;;8.45;7.68;;;16.90;51.20;;;;;;5053869;28;20214;-61
2022/01/27 00:46:17;;;;;;;8.60;7.72;;;16.90;51.20;;;;;;5054436;28;20175;-60
2022/01/27 00:48:44;;;;;;;8.43;7.35;;;16.90;51.10;;;;;;5053202;28;20203;-60
2022/01/27 00:51:11;;;;;;;8.68;7.82;;;16.80;51.10;;;;;;5054132;28;20223;-60
2022/01/27 00:53:51;;;;;;;9.18;8.27;;;16.80;51.10;;;;;;5053672;28;20179;-60
2022/01/27 01:01:21;;;;;;;8.70;7.75;;;16.80;51.00;;;;;;5053180;28;20289;-60
2022/01/27 01:03:49;;;;;;;8.13;7.43;;;16.80;51.10;;;;;;5053636;28;20618;-59
2022/01/27 01:06:32;;;;;;;8.20;7.25;;;16.80;51.00;;;;;;5052689;28;20171;-59
2022/01/27 01:14:23;;;;;;;7.88;7.03;;;16.80;51.10;;;;;;5053596;28;20617;-60
2022/01/27 01:17:19;;;;;;;7.82;6.85;;;16.70;51.00;;;;;;5052449;28;20626;-61
2022/01/27 01:19:50;;;;;;;7.70;6.90;;;16.70;51.00;;;;;;5052652;28;20179;-60
2022/01/27 01:33:08;;;;;;;7.35;6.65;;;16.70;51.00;;;;;;5053116;28;20641;-59
2022/01/27 01:35:47;;;;;;;7.40;6.72;;;16.70;51.00;;;;;;5052558;28;20179;-59
2022/01/27 01:38:14;;;;;;;8.40;7.55;;;16.60;50.90;;;;;;5052579;28;20264;-60
2022/01/27 01:40:39;;;;;;;8.77;7.20;;;16.60;50.90;;;;;;5053018;28;20252;-60
2022/01/27 01:43:05;;;;;;;8.40;7.60;;;16.60;51.00;;;;;;5053589;28;20183;-60
2022/01/27 01:45:33;;;;;;;7.43;6.60;;;16.70;51.00;;;;;;5052851;28;20273;-59
2022/01/27 01:47:59;;;;;;;7.60;6.80;;;16.60;50.80;;;;;;5053343;28;20195;-60
2022/01/27 01:50:25;;;;;;;8.60;7.65;;;16.60;50.90;;;;;;5052560;28;20206;-59
2022/01/27 01:52:51;;;;;;;8.07;7.38;;;16.60;50.80;;;;;;5052715;28;20223;-60
2022/01/27 01:55:18;;;;;;;8.52;7.32;;;16.60;50.90;;;;;;5052355;28;20179;-61
2022/01/27 01:57:43;;;;;;;8.23;7.05;;;16.60;50.90;;;;;;5052040;28;20171;-60
2022/01/27 02:00:09;;;;;;;7.80;7.10;;;16.60;50.80;;;;;;5052115;28;20629;-60
2022/01/27 02:02:35;;;;;;;8.25;7.45;;;16.60;50.80;;;;;;5052412;28;20183;-59
2022/01/27 02:05:00;;;;;;;8.43;7.53;;;16.60;50.90;;;;;;5051294;28;20213;-59
2022/01/27 02:10:33;;;;;;;7.68;6.97;;;16.60;50.80;;;;;;5052201;28;20186;-59
2022/01/27 02:18:27;;;;;;;8.00;7.20;;;16.50;50.80;;;;;;5051569;28;20209;-61
2022/01/27 02:20:53;;;;;;;7.95;7.15;;;16.50;50.70;;;;;;5052144;28;20175;-60
2022/01/27 02:23:18;;;;;;;9.25;7.57;;;16.50;50.80;;;;;;5052321;28;20606;-61
2022/01/27 02:25:44;;;;;;;8.20;6.93;;;16.50;50.70;;;;;;5051316;28;20260;-60
2022/01/27 02:28:09;;;;;;;8.55;7.63;;;16.50;50.80;;;;;;5051769;28;20183;-60
2022/01/27 02:30:35;;;;;;;7.40;6.70;;;16.50;50.80;;;;;;5051979;28;20189;-60
2022/01/27 02:33:00;;;;;;;8.35;7.45;;;16.50;50.70;;;;;;5051201;28;20197;-60
2022/01/27 02:35:28;;;;;;;7.80;7.00;;;16.40;51.40;;;;;;5051968;28;20163;-59
2022/01/27 02:37:53;;;;;;;7.85;6.97;;;16.50;50.80;;;;;;5051558;28;20224;-60
2022/01/27 02:40:23;;;;;;;7.60;6.90;;;16.40;50.70;;;;;;5051331;28;20175;-60
2022/01/27 02:42:49;;;;;;;7.30;6.50;;;16.40;50.70;;;;;;5051015;28;20190;-60
2022/01/27 02:45:22;;;;;;;7.53;6.78;;;16.40;50.80;;;;;;5051805;28;20637;-61
2022/01/27 02:47:48;;;;;;;7.78;7.07;;;16.40;50.70;;;;;;5049890;28;20175;-60
2022/01/27 02:50:13;;;;;;;7.05;6.30;;;16.40;50.70;;;;;;5051516;28;20185;-60
2022/01/27 02:52:39;;;;;;;8.65;7.85;;;16.40;50.80;;;;;;5051725;28;20261;-60
2022/01/27 02:55:05;;;;;;;7.43;6.72;;;16.40;50.70;;;;;;5050653;28;20179;-62
2022/01/27 02:57:31;;;;;;;7.88;6.97;;;16.40;50.80;;;;;;5051999;28;20175;-61
2022/01/27 02:59:56;;;;;;;8.25;7.18;;;16.40;50.80;;;;;;5051634;28;20567;-60
2022/01/27 03:02:22;;;;;;;7.65;6.85;;;16.40;50.80;;;;;;5051166;28;20179;-60
2022/01/27 03:04:48;;;;;;;7.18;6.47;;;16.40;50.80;;;;;;5051633;28;20246;-61
2022/01/27 03:07:14;;;;;;;8.13;7.07;;;16.40;50.80;;;;;;5051416;28;20206;-60
2022/01/27 03:09:40;;;;;;;7.50;6.70;;;16.30;50.80;;;;;;5049574;28;20183;-60
2022/01/27 03:12:07;;;;;;;7.95;7.25;;;16.40;50.90;;;;;;5051510;28;20221;-60
2022/01/27 03:14:33;;;;;;;8.20;6.82;;;16.30;50.70;;;;;;5050543;28;20265;-61
2022/01/27 03:16:59;;;;;;;7.50;6.80;;;16.30;50.80;;;;;;5050781;28;20262;-61
2022/01/27 03:19:25;;;;;;;9.35;7.28;;;16.30;50.80;;;;;;5051644;28;20626;-61
2022/01/27 03:21:51;;;;;;;6.70;6.07;;;16.30;50.70;;;;;;5051277;28;20638;-60
2022/01/27 03:24:18;;;;;;;7.35;6.65;;;16.30;50.70;;;;;;5052073;28;20297;-61
2022/01/27 03:26:44;;;;;;;7.90;7.20;;;16.30;50.80;;;;;;5052625;28;20175;-60
2022/01/27 03:29:09;;;;;;;7.80;6.97;;;16.30;50.70;;;;;;5053746;28;20197;-60
2022/01/27 03:31:35;;;;;;;7.80;6.65;;;16.30;50.80;;;;;;5056255;28;20167;-60
2022/01/27 03:34:00;;;;;;;7.50;6.68;;;16.30;50.70;;;;;;5056120;28;20182;-59
2022/01/27 03:36:26;;;;;;;7.80;7.00;;;16.30;50.80;;;;;;5055725;28;20171;-60
2022/01/27 03:38:51;;;;;;;8.00;7.18;;;16.30;50.70;;;;;;5056015;28;20174;-60
2022/01/27 03:41:21;;;;;;;7.30;6.60;;;16.20;50.70;;;;;;5055915;28;20522;-60
2022/01/27 03:43:48;;;;;;;7.78;6.65;;;16.30;50.80;;;;;;5055086;28;20681;-60
2022/01/27 03:46:14;;;;;;;8.27;7.47;;;16.20;51.40;;;;;;5055739;28;20178;-60
2022/01/27 03:48:39;;;;;;;7.22;6.03;;;16.20;50.70;;;;;;5055971;28;20184;-60
2022/01/27 03:51:05;;;;;;;7.60;6.90;;;16.20;50.70;;;;;;5054669;28;20226;-60
2022/01/27 03:53:30;;;;;;;7.75;6.80;;;16.20;50.70;;;;;;5056082;28;20193;-60
2022/01/27 03:55:57;;;;;;;8.00;6.82;;;16.20;50.80;;;;;;5055352;28;20566;-60
2022/01/27 03:58:22;;;;;;;7.40;6.70;;;16.20;51.50;;;;;;5055140;28;20177;-60
2022/01/27 04:00:48;;;;;;;6.93;6.32;;;16.20;50.80;;;;;;5055850;28;20626;-60
2022/01/27 04:03:16;;;;;;;7.03;6.32;;;16.20;50.80;;;;;;5055644;28;20206;-61
2022/01/27 04:05:48;;;;;;;6.97;6.30;;;16.20;50.80;;;;;;5054978;28;20198;-60
2022/01/27 04:08:14;;;;;;;8.95;7.45;;;16.20;50.80;;;;;;5055542;28;20254;-59
2022/01/27 04:10:40;;;;;;;7.47;6.78;;;16.10;50.70;;;;;;5055671;28;20706;-60
2022/01/27 04:13:06;;;;;;;7.65;6.90;;;16.10;50.70;;;;;;5054670;28;20190;-60
2022/01/27 04:15:32;;;;;;;7.35;6.65;;;16.10;50.70;;;;;;5055676;28;20182;-61
2022/01/27 04:17:58;;;;;;;7.13;6.45;;;16.10;50.70;;;;;;5054588;28;20577;-61
2022/01/27 04:20:23;;;;;;;8.00;7.20;;;16.10;50.70;;;;;;5055416;28;20186;-60
2022/01/27 04:22:49;;;;;;;9.20;8.20;;;16.10;50.70;;;;;;5055502;28;20171;-61
2022/01/27 04:25:15;;;;;;;6.85;6.15;;;16.10;50.70;;;;;;5054504;28;20211;-61
2022/01/27 04:27:44;;;;;;;7.85;6.97;;;16.10;50.70;;;;;;5055193;28;20175;-60
2022/01/27 04:30:15;;;;;;;7.25;6.63;;;16.10;50.70;;;;;;5054869;28;20190;-60
2022/01/27 04:32:46;;;;;;;7.38;6.68;;;16.10;50.70;;;;;;5054393;28;20182;-60
2022/01/27 04:35:16;;;;;;;7.38;6.68;;;16.10;50.70;;;;;;5054891;28;20593;-61
2022/01/27 04:37:53;;;;;;;6.97;6.28;;;16.10;50.70;;;;;;5055220;28;20177;-60
2022/01/27 04:40:25;;;;;;;7.07;6.20;;;16.10;50.80;;;;;;5054166;28;20178;-59
2022/01/27 04:42:59;;;;;;;8.90;6.63;;;16.10;50.80;;;;;;5054985;28;20255;-62
2022/01/27 04:45:30;;;;;;;7.20;6.50;;;16.10;50.80;;;;;;5054835;28;20206;-60
2022/01/27 04:48:06;;;;;;;7.50;6.80;;;16.00;50.70;;;;;;5053752;28;20578;-60
2022/01/27 04:50:31;;;;;;;7.18;6.47;;;16.00;50.70;;;;;;5054849;28;20182;-57
2022/01/27 04:52:59;;;;;;;8.02;6.90;;;16.00;50.70;;;;;;5054641;28;20190;-60
2022/01/27 04:55:25;;;;;;;6.90;6.20;;;16.00;50.70;;;;;;5053889;28;20590;-60
2022/01/27 04:58:05;;;;;;;7.20;6.50;;;16.00;50.70;;;;;;5054481;28;20183;-60
2022/01/27 05:00:30;;;;;;;7.25;6.40;;;16.00;50.70;;;;;;5053993;28;20233;-60
2022/01/27 05:02:59;;;;;;;7.22;6.53;;;16.00;50.70;;;;;;5054330;28;20179;-60
2022/01/27 05:05:24;;;;;;;8.15;6.95;;;16.00;50.70;;;;;;5054451;28;20262;-59
2022/01/27 05:07:56;;;;;;;7.20;6.50;;;16.00;50.70;;;;;;5053807;28;20266;-59
2022/01/27 05:10:25;;;;;;;7.20;6.50;;;15.90;50.70;;;;;;5054321;28;20198;-60
2022/01/27 05:12:54;;;;;;;7.47;6.72;;;15.90;50.70;;;;;;5054554;28;20171;-60
2022/01/27 05:15:21;;;;;;;7.13;6.43;;;15.90;50.70;;;;;;5053653;28;20171;-61
2022/01/27 05:17:46;;;;;;;7.03;6.32;;;15.90;50.80;;;;;;5054245;28;20187;-60
2022/01/27 05:20:12;;;;;;;7.70;6.72;;;15.90;50.70;;;;;;5053950;28;20228;-60
2022/01/27 05:22:37;;;;;;;7.03;6.10;;;15.90;50.70;;;;;;5053441;28;20266;-60
2022/01/27 05:25:03;;;;;;;7.57;6.70;;;15.90;50.80;;;;;;5053669;28;20231;-60
2022/01/27 05:27:28;;;;;;;6.93;6.22;;;15.90;50.80;;;;;;5053968;28;20262;-60
2022/01/27 05:29:54;;;;;;;7.32;6.57;;;15.90;50.70;;;;;;5053221;28;20180;-60
2022/01/27 05:32:20;;;;;;;7.95;6.70;;;15.90;50.70;;;;;;5054128;28;20174;-60
2022/01/27 05:34:45;;;;;;;7.07;6.38;;;15.90;50.70;;;;;;5053971;28;20179;-60
2022/01/27 05:37:11;;;;;;;7.07;6.38;;;15.90;50.70;;;;;;5052860;28;20194;-60
2022/01/27 05:39:36;;;;;;;6.78;5.63;;;15.90;50.70;;;;;;5053691;28;20171;-59
2022/01/27 05:42:02;;;;;;;7.97;6.25;;;15.90;51.50;;;;;;5053610;28;20171;-60
2022/01/27 05:44:27;;;;;;;7.47;6.10;;;15.90;50.80;;;;;;5052981;28;20217;-60
2022/01/27 05:46:53;;;;;;;7.38;5.93;;;15.90;50.70;;;;;;5053517;28;20182;-59
2022/01/27 05:49:18;;;;;;;6.63;6.00;;;15.90;50.80;;;;;;5053697;28;20183;-60
2022/01/27 05:51:44;;;;;;;8.90;6.65;;;15.90;50.80;;;;;;5052047;28;20565;-60
2022/01/27 05:54:10;;;;;;;8.80;6.78;;;15.80;50.70;;;;;;5053366;28;20218;-61
2022/01/27 05:56:36;;;;;;;7.40;6.57;;;15.80;50.80;;;;;;5052865;28;20229;-60
2022/01/27 05:59:02;;;;;;;6.88;6.18;;;15.80;50.80;;;;;;5053439;28;20183;-60
2022/01/27 06:01:27;;;;;;;7.00;6.30;;;15.80;50.80;;;;;;5053454;28;20167;-59
2022/01/27 06:03:53;;;;;;;6.75;6.10;;;15.80;51.00;;;;;;5052062;28;20222;-58
2022/01/27 06:06:18;;;;;;;6.40;5.80;;;15.80;51.00;;;;;;5053307;28;20272;-59
2022/01/27 06:08:44;;;;;;;6.80;6.10;;;15.80;51.00;;;;;;5053239;28;20207;-59
2022/01/27 06:11:10;;;;;;;6.18;5.60;;;15.80;51.00;;;;;;5052418;28;20175;-60
2022/01/27 06:13:36;;;;;;;7.50;5.97;;;15.80;51.00;;;;;;5053143;28;20715;-60
2022/01/27 06:16:08;;;;;;;6.28;5.68;;;15.80;51.00;;;;;;5053011;28;20234;-60
2022/01/27 06:18:34;;;;;;;7.03;6.32;;;15.80;51.10;;;;;;5052579;28;20183;-60
2022/01/27 06:21:03;;;;;;;7.90;5.97;;;15.80;51.00;;;;;;5053012;28;20259;-59
2022/01/27 06:23:28;;;;;;;6.53;5.93;;;15.80;51.10;;;;;;5052936;28;20214;-59
2022/01/27 06:25:54;;;;;;;6.95;6.25;;;15.70;51.00;;;;;;5051963;28;20582;-59
2022/01/27 06:28:19;;;;;;;7.13;6.30;;;15.80;51.20;;;;;;5053156;28;20229;-60
2022/01/27 06:30:45;;;;;;;8.80;5.90;;;15.70;51.10;;;;;;5052979;28;20179;-59
2022/01/27 06:33:11;;;;;;;6.35;5.78;;;15.70;51.10;;;;;;5051970;28;20167;-59
2022/01/27 06:35:37;;;;;;;6.40;5.80;;;15.70;51.10;;;;;;5052945;28;20179;-58
2022/01/27 06:38:03;;;;;;;6.88;6.15;;;15.70;51.30;;;;;;5052752;28;20230;-59
2022/01/27 06:40:28;;;;;;;6.45;5.65;;;15.80;51.30;;;;;;5052353;28;20178;-59
2022/01/27 06:42:54;;;;;;;5.68;5.10;;;15.80;51.30;;;;;;5052762;28;20174;-59
2022/01/27 06:45:19;;;;;;;6.40;5.80;;;15.80;51.20;;;;;;5052921;28;20214;-59
2022/01/27 06:47:45;;;;;;;5.90;5.30;;;15.80;51.20;;;;;;5051968;28;20266;-58
2022/01/27 06:50:10;;;;;;;5.70;5.13;;;15.90;51.20;;;;;;5052466;28;20179;-58
2022/01/27 06:52:36;;;;;;;6.25;5.70;;;15.90;51.20;;;;;;5052457;28;20253;-58
2022/01/27 06:55:04;;;;;;;6.45;5.68;;;15.90;51.30;;;;;;5051795;28;20262;-59
2022/01/27 06:57:29;;;;;;;6.00;5.40;;;15.80;51.20;;;;;;5052827;28;20593;-59
2022/01/27 06:59:55;;;;;;;5.88;5.28;;;15.80;51.30;;;;;;5051707;28;20175;-61
2022/01/27 07:02:20;;;;;;;5.85;5.22;;;15.80;51.40;;;;;;5053598;28;20178;-59
2022/01/27 07:04:46;;;;;;;5.65;5.05;;;15.80;51.30;;;;;;5056599;28;20219;-58
2022/01/27 07:07:12;;;;;;;4.88;4.47;;;15.90;51.40;;;;;;5055587;28;20642;-58
2022/01/27 07:09:39;;;;;;;4.85;4.35;;;15.90;51.40;;;;;;5056794;28;20179;-58
2022/01/27 07:12:04;;;;;;;4.65;4.22;;;15.90;51.50;;;;;;5056532;28;20187;-59
2022/01/27 07:14:32;;;;;;;4.80;4.30;;;16.00;51.50;;;;;;5055995;28;20544;-59
2022/01/27 07:16:58;;;;;;;4.60;3.92;;;16.10;51.50;;;;;;5056408;28;20220;-59
2022/01/27 07:19:24;;;;;;;4.53;4.13;;;16.30;51.50;;;;;;5056486;28;20183;-59
2022/01/27 07:21:49;;;;;;;4.53;4.13;;;16.40;51.30;;;;;;5055701;28;20178;-59
2022/01/27 07:24:15;;;;;;;3.97;3.60;;;16.50;51.10;;;;;;5056145;28;20218;-59
2022/01/27 07:26:40;;;;;;;4.53;4.13;;;16.70;50.90;;;;;;5056292;28;20253;-59
2022/01/27 07:29:06;;;;;;;4.70;4.00;;;16.80;50.70;;;;;;5055251;28;20262;-59
2022/01/27 07:31:31;;;;;;;4.47;3.85;;;16.90;50.50;;;;;;5056413;28;20229;-59
2022/01/27 07:33:58;;;;;;;4.28;3.88;;;17.10;50.40;;;;;;5055977;28;20175;-59
2022/01/27 07:36:24;;;;;;;4.65;4.00;;;17.20;50.20;;;;;;5055773;28;20183;-59
2022/01/27 07:38:50;;;;;;;4.45;4.03;;;17.40;50.00;;;;;;5055972;28;20183;-60
2022/01/27 07:41:16;;;;;;;3.95;3.20;;;17.60;49.70;;;;;;5055907;28;20186;-59
2022/01/27 07:43:42;;;;;;;4.45;3.72;;;17.90;49.40;;;;;;5055373;28;20217;-59
2022/01/27 07:46:08;;;;;;;3.75;3.22;;;17.90;49.30;;;;;;5055556;28;20180;-59
2022/01/27 07:48:33;;;;;;;3.88;3.47;;;18.00;49.30;;;;;;5056044;28;20629;-59
2022/01/27 07:51:02;;;;;;;3.50;3.20;;;18.10;49.20;;;;;;5054686;28;20316;-59
2022/01/27 07:53:27;;;;;;;3.72;3.30;;;18.10;49.10;;;;;;5056166;28;20644;-59
2022/01/27 07:55:53;;;;;;;3.83;3.30;;;18.10;49.10;;;;;;5055629;28;20171;-59
2022/01/27 07:58:18;;;;;;;4.15;3.40;;;18.20;49.10;;;;;;5055157;28;20174;-59
2022/01/27 08:00:44;;;;;;;3.78;3.20;;;18.10;49.10;;;;;;5055777;28;20175;-58
2022/01/27 08:03:09;;;;;;;4.20;3.40;;;18.10;49.10;;;;;;5054587;28;20635;-59
2022/01/27 08:05:35;;;;;;;4.97;3.63;;;18.10;49.20;;;;;;5055500;28;20210;-59
2022/01/27 08:08:00;;;;;;;4.38;3.50;;;18.10;49.30;;;;;;5055169;28;20175;-58
2022/01/27 08:10:25;;;;;;;3.97;3.50;;;18.00;49.40;;;;;;5055058;28;20228;-58
2022/01/27 08:12:51;;;;;;;3.72;3.42;;;18.00;49.50;;;;;;5055644;28;20168;-59
2022/01/27 08:15:19;;;;;;;3.10;2.83;;;17.90;49.60;;;;;;5054455;28;20557;-63
2022/01/27 08:17:45;;;;;;;4.60;3.65;;;18.00;49.80;;;;;;5054429;28;20209;-62
2022/01/27 08:20:22;;;;;;;3.88;3.13;;;18.00;49.80;;;;;;5054738;28;20211;-63
2022/01/27 08:22:50;;;;;;;3.17;2.88;;;18.10;49.70;;;;;;5055016;28;20633;-63
2022/01/27 08:25:16;;;;;;;5.57;3.30;;;18.10;49.70;;;;;;5053870;28;20596;-61
2022/01/27 08:27:45;;;;;;;6.05;2.92;;;18.20;49.90;;;;;;5055009;28;20171;-62
2022/01/27 08:30:14;;;;;;;7.00;3.20;;;18.30;50.30;;;;;;5054729;28;20542;-60
2022/01/27 08:32:47;;;;;;;4.75;3.17;;;18.30;50.30;;;;;;5054399;28;20179;-60
2022/01/27 08:35:17;;;;;;;3.83;3.25;;;18.30;50.50;;;;;;5054735;28;20179;-62
2022/01/27 08:37:43;;;;;;;3.97;2.88;;;18.40;50.60;;;;;;5054788;28;20171;-62
2022/01/27 08:40:09;;;;;;;4.03;3.03;;;18.50;50.30;;;;;;5053742;28;20258;-62
2022/01/27 08:42:35;;;;;;;4.47;3.38;;;18.50;50.50;;;;;;5054440;28;20187;-62
2022/01/27 08:45:00;;;;;;;3.70;3.00;;;18.50;50.50;;;;;;5054121;28;20203;-62
2022/01/27 08:47:26;;;;;;;3.55;3.10;;;18.50;50.50;;;;;;5053699;28;20167;-61
2022/01/27 08:49:52;;;;;;;4.03;2.83;;;18.50;50.50;;;;;;5054151;28;20177;-62
2022/01/27 08:52:17;;;;;;;4.82;3.20;;;18.50;50.70;;;;;;5053084;28;20219;-62
2022/01/27 08:54:43;;;;;;;5.97;2.88;;;18.50;50.70;;;;;;5053599;28;20660;-65
2022/01/27 08:57:11;;;;;;;3.53;2.63;;;18.50;50.70;;;;;;5053545;28;20709;-65
2022/01/27 08:59:36;;;;;;;7.85;3.30;;;18.50;50.70;;;;;;5053388;28;20242;-64
2022/01/27 09:02:02;;;;;;;3.17;2.90;;;18.60;50.70;;;;;;5053601;28;20199;-64
2022/01/27 09:04:27;;;;;;;3.25;2.88;;;18.60;50.70;;;;;;5054018;28;20218;-61
2022/01/27 09:06:53;;;;;;;4.60;3.10;;;18.60;50.80;;;;;;5049941;28;20178;-63
2022/01/27 09:09:19;;;;;;;3.65;2.50;;;18.60;50.70;;;;;;5053846;28;20178;-61
2022/01/27 09:11:46;;;;;;;4.28;2.78;;;18.60;50.80;;;;;;5053996;28;20179;-60
2022/01/27 09:14:12;;;;;;;3.38;3.03;;;18.50;50.80;;;;;;5052508;28;20201;-59
2022/01/27 09:16:38;;;;;;;2.75;2.47;;;18.50;50.80;;;;;;5053405;28;20662;-60
2022/01/27 09:19:04;;;;;;;3.15;2.83;;;18.50;50.80;;;;;;5053292;28;20179;-60
2022/01/27 09:21:40;;;;;;;3.15;2.78;;;18.40;50.90;;;;;;5052564;28;20261;-59
2022/01/27 09:24:06;;;;;;;5.68;2.67;;;18.30;51.10;;;;;;5053080;28;20695;-60
2022/01/27 09:29:19;;;;;;;2.65;2.45;;;18.30;51.40;;;;;;5051585;28;20194;-61
2022/01/27 09:31:48;;;;;;;2.78;2.50;;;18.20;51.60;;;;;;5050834;28;20650;-61
2022/01/27 09:34:14;;;;;;;3.70;2.83;;;18.20;51.50;;;;;;5052854;28;20190;-61
2022/01/27 09:36:39;;;;;;;3.78;2.28;;;18.20;51.60;;;;;;5052557;28;20171;-60
2022/01/27 09:39:05;;;;;;;4.07;2.83;;;18.20;51.70;;;;;;5052778;28;20210;-61
2022/01/27 09:41:30;;;;;;;3.38;2.33;;;18.20;51.70;;;;;;5052458;28;20166;-61
2022/01/27 09:43:57;;;;;;;4.18;2.50;;;18.20;51.80;;;;;;5051654;28;20298;-61
2022/01/27 09:46:24;;;;;;;3.53;2.10;;;18.20;51.60;;;;;;5053316;28;20212;-61
2022/01/27 09:48:51;;;;;;;3.03;2.45;;;18.20;51.60;;;;;;5052267;28;20282;-61
2022/01/27 09:53:48;;;;;;;2.40;2.20;;;18.20;51.60;;;;;;5053183;28;20229;-61
2022/01/27 09:56:14;;;;;;;3.15;2.65;;;18.20;51.70;;;;;;5052066;28;20167;-61
2022/01/27 09:58:39;;;;;;;2.38;2.17;;;18.20;51.70;;;;;;5053025;28;20175;-62
2022/01/27 10:01:05;;;;;;;2.97;2.30;;;18.20;51.60;;;;;;5052699;28;20296;-61
2022/01/27 10:03:31;;;;;;;2.40;2.03;;;18.30;51.80;;;;;;5051820;28;20192;-62
2022/01/27 10:06:13;;;;;;;2.30;2.10;;;18.30;51.70;;;;;;5052406;28;20226;-61
2022/01/27 10:08:42;;;;;;;2.58;2.20;;;18.30;51.80;;;;;;5050328;28;20536;-61
2022/01/27 10:11:15;;;;;;;3.70;2.72;;;18.30;51.80;;;;;;5051113;28;20637;-60
2022/01/27 10:13:45;;;;;;;3.42;2.60;;;18.30;51.70;;;;;;5053178;28;20179;-64
2022/01/27 10:16:30;;;;;;;3.38;2.20;;;18.20;51.60;;;;;;5052766;28;20246;-62
2022/01/27 10:19:05;;;;;;;3.00;2.70;;;18.20;51.80;;;;;;5051787;28;20258;-62
2022/01/27 10:21:31;;;;;;;2.40;2.20;;;18.10;51.80;;;;;;5053025;28;20179;-61
2022/01/27 10:23:57;;;;;;;2.50;2.30;;;18.10;52.00;;;;;;5051900;28;20268;-61
2022/01/27 10:26:29;;;;;;;2.17;1.95;;;18.00;52.00;;;;;;5051491;28;20175;-61
2022/01/27 10:31:47;;;;;;;2.83;2.40;;;18.10;52.00;;;;;;5052200;28;20170;-62
2022/01/27 10:34:14;;;;;;;2.60;1.92;;;18.10;52.00;;;;;;5051705;28;20270;-61
2022/01/27 10:36:41;;;;;;;2.70;2.28;;;18.10;51.90;;;;;;5069168;28;20250;-62
2022/01/27 10:39:20;;;;;;;2.47;2.25;;;18.10;51.90;;;;;;5052334;28;20183;-62
2022/01/27 10:42:00;;;;;;;2.20;2.00;;;18.30;52.00;;;;;;5058602;28;20205;-62
2022/01/27 10:44:43;;;;;;;2.05;1.90;;;18.10;51.80;;;;;;5072485;28;20720;-62
2022/01/27 10:47:17;;;;;;;2.15;1.95;;;18.10;51.80;;;;;;5071850;28;20261;-62
2022/01/27 10:49:53;;;;;;;2.72;2.20;;;18.00;51.70;;;;;;5071257;28;20261;-62
2022/01/27 10:52:40;;;;;;;2.42;1.95;;;18.00;51.80;;;;;;5051828;28;20234;-62
2022/01/27 10:55:11;;;;;;;2.00;1.85;;;18.00;51.90;;;;;;5052309;28;20198;-62
2022/01/27 10:57:36;;;;;;;3.15;2.10;;;17.90;52.00;;;;;;5052559;28;20186;-63
2022/01/27 11:00:18;;;;;;;2.38;2.00;;;17.90;52.00;;;;;;5051323;28;20182;-63
2022/01/27 11:02:56;;;;;;;2.15;1.95;;;17.90;52.00;;;;;;5052359;28;20175;-62
2022/01/27 11:05:23;;;;;;;1.90;1.80;;;18.00;52.00;;;;;;5052326;28;20214;-63
2022/01/27 11:07:48;;;;;;;2.10;1.90;;;18.00;52.00;;;;;;5061365;28;20226;-62
2022/01/27 11:10:15;;;;;;;2.58;1.92;;;18.00;52.00;;;;;;5072188;28;20178;-61
2022/01/27 11:12:42;;;;;;;1.83;1.73;;;18.00;52.00;;;;;;5072373;28;20166;-63
2022/01/27 11:15:10;;;;;;;2.00;1.77;;;18.00;51.90;;;;;;5071185;28;20182;-62
2022/01/27 11:17:37;;;;;;;1.55;1.45;;;18.00;51.90;;;;;;5072565;28;20179;-62
2022/01/27 11:20:22;;;;;;;2.38;2.17;;;18.00;51.90;;;;;;5070280;28;20198;-63
2022/01/27 11:27:50;;;;;;;2.75;2.20;;;17.90;51.90;;;;;;5070482;28;20198;-62
2022/01/27 11:30:37;;;;;;;2.25;1.70;;;17.90;52.10;;;;;;5070608;28;20518;-62
2022/01/27 11:33:04;;;;;;;1.80;1.60;;;17.90;52.10;;;;;;5056256;28;20644;-62
2022/01/27 11:35:30;;;;;;;2.03;1.63;;;17.90;52.10;;;;;;5070117;28;20182;-62
2022/01/27 11:38:03;;;;;;;1.90;1.80;;;17.90;52.10;;;;;;5071648;28;20235;-63
2022/01/27 11:40:45;;;;;;;1.77;1.67;;;17.90;52.00;;;;;;5072274;28;20178;-62
2022/01/27 11:43:15;;;;;;;1.80;1.60;;;18.00;52.00;;;;;;5051031;28;20185;-62
2022/01/27 11:45:41;;;;;;;1.52;1.42;;;17.90;52.00;;;;;;5052219;28;20191;-62
2022/01/27 11:48:21;;;;;;;2.85;2.20;;;17.90;52.00;;;;;;5050872;28;20179;-62
2022/01/27 11:50:55;;;;;;;2.47;2.28;;;17.90;52.00;;;;;;5055104;28;20183;-63
2022/01/27 11:53:32;;;;;;;1.88;1.33;;;17.80;52.00;;;;;;5055740;28;20175;-63
2022/01/27 11:56:16;;;;;;;1.52;1.42;;;17.80;52.10;;;;;;5054593;28;20182;-62
2022/01/27 11:58:48;;;;;;;1.77;1.67;;;17.80;52.10;;;;;;5055577;28;20179;-62
2022/01/27 12:01:17;;;;;;;2.13;1.67;;;17.80;52.20;;;;;;5055419;28;20262;-63
2022/01/27 12:04:07;;;;;;;1.55;1.40;;;17.80;52.20;;;;;;5054618;28;20628;-62
2022/01/27 12:06:46;;;;;;;3.05;1.77;;;17.80;52.10;;;;;;5055503;28;20179;-59
2022/01/27 12:09:18;;;;;;;2.00;1.77;;;17.90;52.20;;;;;;5054473;28;20206;-61
2022/01/27 12:11:56;;;;;;;1.60;1.50;;;17.90;52.30;;;;;;5055432;28;20198;-61
2022/01/27 12:14:24;;;;;;;2.50;1.92;;;17.90;52.30;;;;;;5055537;28;20194;-62
2022/01/27 12:17:08;;;;;;;2.20;2.00;;;17.90;52.30;;;;;;5054613;28;20179;-61
2022/01/27 12:19:54;;;;;;;1.88;1.67;;;17.80;52.40;;;;;;5055302;28;20218;-62
2022/01/27 12:22:23;;;;;;;3.17;1.60;;;17.80;52.40;;;;;;5055427;28;20528;-62
2022/01/27 12:25:00;;;;;;;1.90;1.70;;;17.80;52.60;;;;;;5054363;28;20210;-62
2022/01/27 12:27:27;;;;;;;1.73;1.50;;;17.80;52.60;;;;;;5055071;28;20193;-61
2022/01/27 12:29:54;;;;;;;1.83;1.58;;;17.80;52.70;;;;;;5054721;28;20179;-60
2022/01/27 12:32:29;;;;;;;2.30;1.70;;;17.80;52.70;;;;;;5054175;28;20260;-62
2022/01/27 12:34:59;;;;;;;2.05;1.85;;;17.80;52.80;;;;;;5054684;28;20181;-62
2022/01/27 12:37:29;;;;;;;2.35;1.70;;;17.80;52.80;;;;;;5053838;28;20265;-62
2022/01/27 12:39:56;;;;;;;2.65;1.92;;;17.90;52.80;;;;;;5054688;28;20175;-61
2022/01/27 12:42:26;;;;;;;3.33;1.88;;;17.90;52.80;;;;;;5067726;28;20178;-61
2022/01/27 12:44:59;;;;;;;3.70;2.13;;;17.80;52.80;;;;;;5072956;28;20220;-62
2022/01/27 12:47:25;;;;;;;3.20;1.98;;;17.80;52.80;;;;;;5074917;28;20186;-62
2022/01/27 12:50:07;;;;;;;4.93;2.38;;;17.70;52.90;;;;;;5074427;28;20536;-61
2022/01/27 12:52:39;;;;;;;1.98;1.80;;;17.70;52.90;;;;;;5073859;28;20218;-61
2022/01/27 12:55:05;;;;;;;2.53;1.80;;;17.70;52.90;;;;;;5074081;28;20660;-61
2022/01/27 12:57:32;;;;;;;2.20;1.70;;;17.70;53.00;;;;;;5074633;28;20189;-61
2022/01/27 12:59:58;;;;;;;2.33;1.63;;;17.70;53.00;;;;;;5055846;28;20655;-62
2022/01/27 13:02:27;;;;;;;2.13;1.85;;;17.80;53.00;;;;;;5054545;28;20183;-61
2022/01/27 13:04:54;;;;;;;1.85;1.75;;;17.80;52.90;;;;;;5054256;28;20210;-61
2022/01/27 13:07:20;;;;;;;2.63;1.80;;;17.80;52.90;;;;;;5053577;28;20600;-61
2022/01/27 13:10:16;;;;;;;2.40;1.65;;;17.80;52.90;;;;;;5054096;28;20191;-61
2022/01/27 13:12:54;;;;;;;2.35;2.00;;;17.80;52.80;;;;;;5053406;28;20610;-63
2022/01/27 13:15:21;;;;;;;2.90;1.83;;;17.80;52.80;;;;;;5054142;28;20174;-62
2022/01/27 13:22:53;;;;;;;2.25;1.83;;;17.70;52.90;;;;;;5054159;28;20177;-62
2022/01/27 13:25:21;;;;;;;1.85;1.75;;;17.80;53.60;;;;;;5053972;28;20211;-62
2022/01/27 13:28:06;;;;;;;2.10;1.90;;;17.80;53.00;;;;;;5054159;28;20179;-63
2022/01/27 13:30:32;;;;;;;1.90;1.80;;;17.80;52.90;;;;;;5054304;28;20205;-62
2022/01/27 13:32:58;;;;;;;2.08;1.45;;;17.80;52.90;;;;;;5052379;28;20177;-62
2022/01/27 13:35:24;;;;;;;1.92;1.80;;;17.80;52.90;;;;;;5052175;28;20175;-62
2022/01/27 13:37:49;;;;;;;2.42;1.88;;;17.70;52.90;;;;;;5053894;28;20178;-63
2022/01/27 13:43:14;;;;;;;1.77;1.67;;;17.70;53.00;;;;;;5033831;28;20229;-63
2022/01/27 13:45:40;;;;;;;2.13;1.90;;;17.70;53.20;;;;;;5032651;28;20215;-63